Главная страница
METAR-TAF:

METAR-TAF

Аэропорты :

Киркенес, Норвегия

широта: 69-44N, долгота: 029-54E, высота над уровнем моря: 9 м

Текущие метеонаблюдения

Эта сводка был подготовлена 18 минут назад, в 16:20 UTC
Ветер 7 Узел от северо-северо-восточный
Температура 12°C
Влажность 82%
Давление 1025 hPa
Видимость 10 км и более
Отдельные облака на высоте 600 фута

METAR: ENKR 231620Z 02007KT 9999 SCT006 12/09 Q1025 RMK WIND 731FT 02010KT

Время: 18:38 (16:38 UTC)

Прогноз

Эта сводка был подготовлена 2 часа и 38 минут назад, в 14:00 UTC
Прогноз действительный с 23-го 15 UTC до 23-го 24 UTC
Ветер 6 Узел от северо-восточный
Видимость 10 км и более
Рассеянная облачность на высоте 600 фута
Вероятность 30% :
временами
С 23-го 15 UTC до 23-го 24 UTC
Отдельные облака на высоте 500 фута
Рассеянная облачность на высоте 1500 фута

TAF: ENKR 231400Z 2315/2324 05006KT 9999 BKN006 PROB30 TEMPO 2315/2324 SCT005 BKN015

Метеонаблюдения и прогнозы для более 4000 аэропортов (сводки METAR и TAF).

Имеющиеся станции представлены на карте желтыми и красными точками.

Чтобы увидеть название станции, наведите на нее мышь.

Затем щелкните, чтобы увидеть метеонаблюдения и метеопрогнозы.

Управление картой: чтобы увеличить масштаб, щелкните зеленые кнопки с черным крестиком; чтобы уменьшить масштаб, щелкните зеленую кнопку с тире; для просмотра соседних карт щелкайте зеленые стрелки.


METAR-TAF: